createdAt,value
2022-10-23T00:01:40.969Z,10.10
2022-10-23T00:04:12.575Z,10.50
2022-10-23T00:06:39.863Z,10.23
2022-10-23T00:09:09.238Z,10.70
2022-10-23T00:11:36.794Z,11.70
2022-10-23T00:14:05.987Z,10.23
2022-10-23T00:16:34.597Z,9.20
2022-10-23T00:19:01.783Z,11.00
2022-10-23T00:21:28.812Z,10.60
2022-10-23T00:23:55.871Z,9.60
2022-10-23T00:26:23.030Z,11.10
2022-10-23T00:28:52.224Z,10.60
2022-10-23T00:31:21.378Z,10.00
2022-10-23T00:33:48.425Z,10.73
2022-10-23T00:36:17.549Z,11.90
2022-10-23T00:38:45.217Z,10.50
2022-10-23T00:41:25.181Z,10.63
2022-10-23T00:44:05.167Z,10.00
2022-10-23T00:46:33.262Z,10.60
2022-10-23T00:49:01.039Z,10.50
2022-10-23T00:51:38.048Z,11.40
2022-10-23T00:56:57.065Z,11.90
2022-10-23T00:59:24.531Z,11.27
2022-10-23T01:01:52.065Z,10.07
2022-10-23T01:04:19.767Z,10.57
2022-10-23T01:07:20.258Z,11.20
2022-10-23T01:10:05.607Z,10.63
2022-10-23T01:12:51.759Z,11.33
2022-10-23T01:15:53.662Z,10.40
2022-10-23T01:18:45.768Z,11.77
2022-10-23T01:21:45.249Z,10.63
2022-10-23T01:24:46.139Z,12.20
2022-10-23T01:27:36.544Z,11.97
2022-10-23T01:30:16.145Z,11.50
2022-10-23T01:32:48.999Z,11.80
2022-10-23T01:35:47.134Z,13.13
2022-10-23T01:38:23.038Z,12.27
2022-10-23T01:41:04.283Z,13.40
2022-10-23T01:43:42.117Z,11.30
2022-10-23T01:46:12.741Z,11.33
2022-10-23T01:48:40.680Z,10.67
2022-10-23T01:51:11.038Z,11.37
2022-10-23T01:53:41.962Z,11.30
2022-10-23T01:56:13.031Z,11.57
2022-10-23T01:58:47.271Z,11.23
2022-10-23T02:01:16.653Z,9.73
2022-10-23T02:03:45.060Z,10.87
2022-10-23T02:06:12.503Z,10.03
2022-10-23T02:08:39.798Z,12.23
2022-10-23T02:11:13.874Z,11.53
2022-10-23T02:14:14.127Z,10.83
2022-10-23T02:16:54.353Z,11.40
2022-10-23T02:19:39.924Z,12.37
2022-10-23T02:22:33.476Z,11.83
2022-10-23T02:25:26.150Z,10.67
2022-10-23T02:27:55.368Z,10.00
2022-10-23T02:30:22.684Z,11.07
2022-10-23T02:32:52.769Z,11.30
2022-10-23T02:35:23.833Z,11.03
2022-10-23T02:37:59.540Z,10.90
2022-10-23T02:40:40.670Z,10.80
2022-10-23T02:43:36.959Z,10.37
2022-10-23T02:46:33.551Z,10.40
2022-10-23T02:49:26.512Z,9.13
2022-10-23T02:52:46.404Z,8.17
2022-10-23T02:55:44.198Z,9.83
2022-10-23T02:58:29.360Z,9.00
2022-10-23T03:01:04.019Z,8.03
2022-10-23T03:03:35.384Z,8.73
2022-10-23T03:06:02.779Z,8.80
2022-10-23T03:08:29.791Z,8.13
2022-10-23T03:10:56.866Z,8.67
2022-10-23T03:13:23.817Z,9.00
2022-10-23T03:15:50.659Z,8.70
2022-10-23T03:18:17.539Z,9.00
2022-10-23T03:20:44.430Z,9.10
2022-10-23T03:23:14.039Z,8.50
2022-10-23T03:25:40.913Z,7.63
2022-10-23T03:28:07.777Z,7.70
2022-10-23T03:30:34.583Z,7.80
2022-10-23T03:33:01.518Z,8.53
2022-10-23T03:35:28.405Z,8.27
2022-10-23T03:37:55.410Z,8.77
2022-10-23T03:40:22.464Z,8.90
2022-10-23T03:42:49.323Z,7.90
2022-10-23T03:45:16.487Z,7.70
2022-10-23T03:47:43.877Z,7.77
2022-10-23T03:50:12.099Z,7.67
2022-10-23T03:52:38.955Z,7.90
2022-10-23T03:55:06.655Z,7.70
2022-10-23T03:57:33.728Z,7.90
2022-10-23T04:00:00.667Z,7.80
2022-10-23T04:02:27.699Z,9.50
2022-10-23T04:04:54.950Z,7.93
2022-10-23T04:07:21.806Z,8.00
2022-10-23T04:09:48.926Z,7.60
2022-10-23T04:12:15.818Z,8.60
2022-10-23T04:14:42.868Z,7.43
2022-10-23T04:17:09.707Z,7.40
2022-10-23T04:19:36.767Z,7.77
2022-10-23T04:22:03.679Z,8.40
2022-10-23T04:24:30.743Z,7.20
2022-10-23T04:26:58.723Z,7.70
2022-10-23T04:29:26.545Z,7.93
2022-10-23T04:31:53.429Z,8.27
2022-10-23T04:34:20.282Z,7.47
2022-10-23T04:36:47.446Z,7.43
2022-10-23T04:39:14.766Z,7.80
2022-10-23T04:41:41.724Z,7.20
2022-10-23T04:44:08.750Z,7.50
2022-10-23T04:46:35.638Z,7.60
2022-10-23T04:49:02.479Z,8.77
2022-10-23T04:51:29.423Z,9.20
2022-10-23T04:53:56.558Z,8.20
2022-10-23T04:56:23.421Z,7.60
2022-10-23T04:58:50.326Z,7.93
2022-10-23T05:01:17.319Z,7.20
2022-10-23T05:03:44.314Z,8.73
2022-10-23T05:06:11.464Z,7.00
2022-10-23T05:08:38.383Z,7.13
2022-10-23T05:11:05.614Z,7.70
2022-10-23T05:13:32.546Z,8.80
2022-10-23T05:16:00.284Z,7.90
2022-10-23T05:18:33.768Z,7.30
2022-10-23T05:21:10.421Z,8.30
2022-10-23T05:23:40.772Z,7.10
2022-10-23T05:26:07.710Z,7.23
2022-10-23T05:28:34.640Z,7.33
2022-10-23T05:31:03.879Z,7.13
2022-10-23T05:33:32.952Z,6.80
2022-10-23T05:36:01.031Z,7.57
2022-10-23T05:38:32.799Z,7.80
2022-10-23T05:40:59.791Z,8.37
2022-10-23T05:43:27.426Z,18.50
2022-10-23T05:45:54.507Z,20.93
2022-10-23T05:48:33.686Z,10.40
2022-10-23T05:51:10.061Z,8.73
2022-10-23T05:53:40.140Z,7.90
2022-10-23T05:56:09.904Z,7.83
2022-10-23T05:58:36.885Z,7.10
2022-10-23T06:01:11.526Z,7.20
2022-10-23T06:03:39.603Z,7.60
2022-10-23T06:06:07.700Z,7.50
2022-10-23T06:08:35.257Z,6.43
2022-10-23T06:11:07.378Z,7.60
2022-10-23T06:13:34.372Z,7.17
2022-10-23T06:16:15.147Z,7.03
2022-10-23T06:18:42.204Z,7.23
2022-10-23T06:21:09.658Z,7.30
2022-10-23T06:23:38.394Z,7.00
2022-10-23T06:26:06.952Z,6.70
2022-10-23T06:28:34.249Z,7.03
2022-10-23T06:31:07.988Z,7.07
2022-10-23T06:33:35.558Z,6.67
2022-10-23T06:36:03.745Z,7.40
2022-10-23T06:38:36.660Z,6.37
2022-10-23T06:41:05.108Z,10.60
2022-10-23T06:43:32.177Z,7.70
2022-10-23T06:46:03.994Z,6.97
2022-10-23T06:48:31.650Z,7.00
2022-10-23T06:51:00.202Z,6.70
2022-10-23T06:53:27.996Z,7.57
2022-10-23T06:56:00.721Z,6.90
2022-10-23T06:58:28.211Z,6.40
2022-10-23T07:00:55.325Z,7.00
2022-10-23T07:03:22.340Z,5.90
2022-10-23T07:05:49.305Z,6.73
2022-10-23T07:08:16.389Z,6.83
2022-10-23T07:10:43.462Z,7.80
2022-10-23T07:13:11.743Z,5.57
2022-10-23T07:15:39.688Z,5.93
2022-10-23T07:18:07.181Z,5.20
2022-10-23T07:20:34.676Z,6.63
2022-10-23T07:23:01.707Z,5.43
2022-10-23T07:25:28.673Z,5.00
2022-10-23T07:27:56.721Z,4.60
2022-10-23T07:30:24.457Z,5.53
2022-10-23T07:32:51.728Z,5.67
2022-10-23T07:35:18.842Z,4.80
2022-10-23T07:37:46.078Z,5.30
2022-10-23T07:40:13.267Z,5.40
2022-10-23T07:42:40.184Z,4.23
2022-10-23T07:45:08.814Z,5.17
2022-10-23T07:47:35.778Z,4.37
2022-10-23T07:50:03.495Z,4.53
2022-10-23T07:52:33.462Z,4.37
2022-10-23T07:55:03.032Z,4.10
2022-10-23T07:57:29.904Z,4.47
2022-10-23T07:59:56.942Z,4.53
2022-10-23T08:02:23.994Z,4.70
2022-10-23T08:04:51.180Z,4.50
2022-10-23T08:07:18.167Z,3.77
2022-10-23T08:09:45.016Z,4.10
2022-10-23T08:12:12.017Z,3.30
2022-10-23T08:14:39.681Z,3.40
2022-10-23T08:17:09.919Z,3.87
2022-10-23T08:19:37.257Z,4.13
2022-10-23T08:22:04.320Z,4.10
2022-10-23T08:24:31.622Z,3.83
2022-10-23T08:26:58.887Z,3.87
2022-10-23T08:29:26.136Z,3.87
2022-10-23T08:31:57.532Z,3.23
2022-10-23T08:34:24.597Z,3.43
2022-10-23T08:36:51.913Z,3.70
2022-10-23T08:39:19.112Z,3.60
2022-10-23T08:41:52.145Z,4.20
2022-10-23T08:44:31.852Z,4.10
2022-10-23T08:47:37.600Z,3.13
2022-10-23T08:50:20.634Z,2.90
2022-10-23T08:52:53.960Z,3.67
2022-10-23T08:55:35.494Z,3.43
2022-10-23T08:58:18.612Z,3.83
2022-10-23T09:00:47.493Z,3.30
2022-10-23T09:03:15.041Z,3.80
2022-10-23T09:06:05.989Z,3.00
2022-10-23T09:08:55.007Z,3.50
2022-10-23T09:11:51.139Z,2.93
2022-10-23T09:15:04.586Z,3.60
2022-10-23T09:17:34.178Z,3.23
2022-10-23T09:20:23.288Z,2.23
2022-10-23T09:23:11.425Z,2.70
2022-10-23T09:25:40.888Z,2.23
2022-10-23T09:28:19.910Z,2.17
2022-10-23T09:30:48.099Z,1.93
2022-10-23T09:33:28.451Z,2.77
2022-10-23T09:36:29.596Z,2.73
2022-10-23T09:38:59.435Z,3.97
2022-10-23T09:41:40.368Z,1.90
2022-10-23T09:44:21.513Z,2.93
2022-10-23T09:46:56.488Z,2.53
2022-10-23T09:49:34.188Z,2.00
2022-10-23T09:52:21.450Z,2.23
2022-10-23T09:54:53.427Z,2.20
2022-10-23T09:57:20.251Z,2.47
2022-10-23T09:59:55.488Z,2.07
2022-10-23T10:02:31.127Z,2.30
2022-10-23T10:04:58.793Z,2.20
2022-10-23T10:07:30.242Z,2.20
2022-10-23T10:09:59.326Z,1.90
2022-10-23T10:12:38.201Z,1.90
2022-10-23T10:15:31.800Z,1.73
2022-10-23T10:19:00.342Z,1.47
2022-10-23T10:21:42.406Z,1.30
2022-10-23T10:24:20.151Z,1.70
2022-10-23T10:27:08.200Z,1.50
2022-10-23T10:29:56.886Z,1.60
2022-10-23T10:32:40.153Z,2.13
2022-10-23T10:36:03.767Z,1.00
2022-10-23T10:39:00.789Z,1.73
2022-10-23T10:42:02.251Z,1.80
2022-10-23T10:44:46.900Z,1.40
2022-10-23T10:50:45.211Z,1.47
2022-10-23T10:53:51.697Z,2.53
2022-10-23T10:56:20.680Z,1.80
2022-10-23T10:58:58.216Z,1.90
2022-10-23T11:01:41.870Z,1.53
2022-10-23T11:04:28.845Z,1.53
2022-10-23T11:06:57.604Z,1.70
2022-10-23T11:09:28.591Z,1.60
2022-10-23T11:11:55.792Z,1.90
2022-10-23T11:14:28.167Z,1.70
2022-10-23T11:17:21.574Z,1.40
2022-10-23T11:20:15.568Z,1.33
2022-10-23T11:23:22.392Z,1.50
2022-10-23T11:26:23.162Z,1.90
2022-10-23T11:29:25.638Z,1.93
2022-10-23T11:32:40.341Z,1.50
2022-10-23T11:36:15.205Z,2.13
2022-10-23T11:38:45.784Z,2.10
2022-10-23T11:41:23.721Z,2.57
2022-10-23T11:43:57.539Z,2.00
2022-10-23T11:46:38.468Z,2.20
2022-10-23T11:49:19.408Z,1.70
2022-10-23T11:51:46.602Z,1.77
2022-10-23T11:54:24.620Z,2.17
2022-10-23T11:57:17.772Z,2.70
2022-10-23T11:59:55.809Z,2.77
2022-10-23T12:02:43.531Z,1.90
2022-10-23T12:05:35.614Z,1.70
2022-10-23T12:08:05.869Z,1.20
2022-10-23T12:10:46.459Z,1.90
2022-10-23T12:13:45.737Z,1.20
2022-10-23T12:16:13.133Z,1.17
2022-10-23T12:18:52.129Z,1.43
2022-10-23T12:21:22.764Z,2.10
2022-10-23T12:24:22.841Z,1.50
2022-10-23T12:27:26.173Z,1.50
2022-10-23T12:30:23.682Z,1.60
2022-10-23T12:33:20.801Z,1.10
2022-10-23T12:36:22.653Z,1.40
2022-10-23T12:38:50.183Z,2.20
2022-10-23T12:41:34.763Z,2.00
2022-10-23T12:44:04.404Z,2.80
2022-10-23T12:46:41.206Z,1.97
2022-10-23T12:49:19.712Z,1.13
2022-10-23T12:52:01.882Z,1.60
2022-10-23T12:54:32.398Z,1.50
2022-10-23T12:56:59.887Z,1.87
2022-10-23T12:59:35.788Z,1.93
2022-10-23T13:02:13.532Z,1.40
2022-10-23T13:04:41.378Z,1.40
2022-10-23T13:07:08.412Z,1.03
2022-10-23T13:09:39.586Z,0.90
2022-10-23T13:12:08.127Z,1.73
2022-10-23T13:14:54.787Z,1.37
2022-10-23T13:17:21.823Z,1.27
2022-10-23T13:19:48.675Z,0.77
2022-10-23T13:22:22.347Z,1.23
2022-10-23T13:24:49.228Z,1.00
2022-10-23T13:27:32.063Z,1.10
2022-10-23T13:29:59.094Z,1.00
2022-10-23T13:32:30.164Z,1.10
2022-10-23T13:35:04.413Z,1.33
2022-10-23T13:37:37.518Z,1.23
2022-10-23T13:40:10.356Z,1.43
2022-10-23T13:42:37.490Z,1.10
2022-10-23T13:45:10.222Z,1.03
2022-10-23T13:47:37.321Z,1.43
2022-10-23T13:50:06.618Z,1.37
2022-10-23T13:52:33.605Z,1.53
2022-10-23T13:55:00.625Z,1.33
2022-10-23T13:57:27.533Z,1.30
2022-10-23T13:59:54.474Z,1.37
2022-10-23T14:02:23.265Z,1.10
2022-10-23T14:04:51.083Z,1.50
2022-10-23T14:07:18.283Z,1.47
2022-10-23T14:09:45.328Z,1.20
2022-10-23T14:12:12.578Z,1.40
2022-10-23T14:14:39.627Z,1.50
2022-10-23T14:17:06.522Z,1.23
2022-10-23T14:19:34.518Z,1.70
2022-10-23T14:22:04.258Z,1.33
2022-10-23T14:24:31.156Z,1.50
2022-10-23T14:26:59.793Z,1.97
2022-10-23T14:29:27.291Z,1.60
2022-10-23T14:31:54.314Z,1.77
2022-10-23T14:34:21.206Z,1.63
2022-10-23T14:36:50.472Z,1.43
2022-10-23T14:39:18.074Z,1.70
2022-10-23T14:41:45.180Z,1.70
2022-10-23T14:44:12.076Z,1.60
2022-10-23T14:46:38.923Z,1.23
2022-10-23T14:49:06.128Z,1.60
2022-10-23T14:51:33.377Z,1.70
2022-10-23T14:54:02.917Z,1.70
2022-10-23T14:56:32.289Z,1.70
2022-10-23T14:59:02.960Z,2.10
2022-10-23T15:01:36.374Z,1.77
2022-10-23T15:04:03.979Z,1.10
2022-10-23T15:06:30.879Z,1.40
2022-10-23T15:08:57.971Z,1.80
2022-10-23T15:11:26.833Z,2.00
2022-10-23T15:13:54.815Z,1.50
2022-10-23T15:16:23.107Z,1.60
2022-10-23T15:18:50.345Z,1.60
2022-10-23T15:21:17.670Z,1.60
2022-10-23T15:23:46.035Z,1.80
2022-10-23T15:26:20.745Z,1.47
2022-10-23T15:28:52.937Z,1.63
2022-10-23T15:31:43.695Z,2.13
2022-10-23T15:34:17.798Z,3.00
2022-10-23T15:36:47.179Z,1.60
2022-10-23T15:39:17.012Z,1.37
2022-10-23T15:41:44.973Z,1.70
2022-10-23T15:44:15.962Z,1.60
2022-10-23T15:46:46.377Z,1.60
2022-10-23T15:49:13.587Z,1.80
2022-10-23T15:51:41.451Z,1.87
2022-10-23T15:54:11.384Z,2.33
2022-10-23T15:56:38.251Z,2.13
2022-10-23T15:59:05.293Z,1.30
2022-10-23T16:01:32.299Z,2.10
2022-10-23T16:04:00.178Z,2.00
2022-10-23T16:06:27.175Z,1.90
2022-10-23T16:08:55.709Z,2.40
2022-10-23T16:11:26.093Z,1.57
2022-10-23T16:13:55.114Z,1.70
2022-10-23T16:16:22.278Z,1.93
2022-10-23T16:18:49.724Z,2.63
2022-10-23T16:21:20.076Z,2.67
2022-10-23T16:23:47.282Z,2.70
2022-10-23T16:26:14.612Z,2.50
2022-10-23T16:28:43.969Z,2.90
2022-10-23T16:31:17.701Z,3.67
2022-10-23T16:33:50.833Z,2.80
2022-10-23T16:36:18.648Z,3.03
2022-10-23T16:38:46.025Z,2.47
2022-10-23T16:41:13.135Z,3.07
2022-10-23T16:43:40.349Z,3.17
2022-10-23T16:46:12.591Z,2.50
2022-10-23T16:48:41.556Z,2.80
2022-10-23T16:51:11.738Z,2.97
2022-10-23T16:53:38.998Z,3.10
2022-10-23T16:56:08.259Z,3.47
2022-10-23T16:58:35.586Z,4.40
2022-10-23T17:01:06.192Z,2.60
2022-10-23T17:03:39.737Z,3.30
2022-10-23T17:06:11.264Z,3.37
2022-10-23T17:08:39.470Z,3.43
2022-10-23T17:11:26.969Z,3.50
2022-10-23T17:14:01.147Z,3.93
2022-10-23T17:16:41.351Z,3.20
2022-10-23T17:19:20.858Z,3.50
2022-10-23T17:21:55.093Z,4.00
2022-10-23T17:24:23.271Z,3.43
2022-10-23T17:26:50.261Z,3.50
2022-10-23T17:29:18.532Z,4.10
2022-10-23T17:31:48.175Z,5.20
2022-10-23T17:34:21.157Z,4.00
2022-10-23T17:36:51.727Z,3.47
2022-10-23T17:39:21.832Z,3.90
2022-10-23T17:41:49.226Z,4.23
2022-10-23T17:44:16.906Z,3.27
2022-10-23T17:46:44.111Z,3.23
2022-10-23T17:49:12.702Z,3.67
2022-10-23T17:51:40.328Z,3.27
2022-10-23T17:54:10.892Z,2.70
2022-10-23T17:56:39.084Z,3.43
2022-10-23T17:59:09.482Z,4.00
2022-10-23T18:01:36.730Z,3.60
2022-10-23T18:04:06.627Z,3.83
2022-10-23T18:06:49.021Z,3.70
2022-10-23T18:09:16.709Z,4.20
2022-10-23T18:11:48.092Z,3.73
2022-10-23T18:14:17.236Z,3.57
2022-10-23T18:16:46.040Z,3.23
2022-10-23T18:19:14.567Z,3.07
2022-10-23T18:21:41.531Z,3.27
2022-10-23T18:24:09.091Z,3.07
2022-10-23T18:26:37.863Z,3.83
2022-10-23T18:29:07.933Z,3.07
2022-10-23T18:31:37.532Z,2.70
2022-10-23T18:34:19.743Z,3.67
2022-10-23T18:36:47.527Z,2.87
2022-10-23T18:39:17.952Z,2.97
2022-10-23T18:41:46.606Z,2.23
2022-10-23T18:44:19.375Z,2.40
2022-10-23T18:46:48.305Z,2.50
2022-10-23T18:49:17.653Z,2.93
2022-10-23T18:51:44.991Z,2.97
2022-10-23T18:54:15.045Z,2.37
2022-10-23T18:56:42.158Z,3.20
2022-10-23T18:59:13.420Z,2.73
2022-10-23T19:01:40.883Z,2.90
2022-10-23T19:04:08.862Z,2.70
2022-10-23T19:06:37.492Z,2.50
2022-10-23T19:09:08.426Z,2.90
2022-10-23T19:11:36.065Z,3.10
2022-10-23T19:14:03.330Z,2.63
2022-10-23T19:16:55.716Z,2.67
2022-10-23T19:19:28.574Z,2.67
2022-10-23T19:21:56.643Z,2.90
2022-10-23T19:24:29.670Z,3.00
2022-10-23T19:26:59.832Z,3.10
2022-10-23T19:29:27.455Z,3.27
2022-10-23T19:31:55.286Z,2.60
2022-10-23T19:34:24.921Z,3.10
2022-10-23T19:36:55.098Z,3.00
2022-10-23T19:39:23.049Z,3.70
2022-10-23T19:41:51.866Z,5.93
2022-10-23T19:44:19.751Z,3.80
2022-10-23T19:46:47.827Z,3.30
2022-10-23T19:49:15.406Z,3.50
2022-10-23T19:51:50.429Z,3.07
2022-10-23T19:54:18.421Z,3.43
2022-10-23T19:56:45.310Z,2.73
2022-10-23T19:59:13.321Z,2.90
2022-10-23T20:01:43.891Z,2.20
2022-10-23T20:04:13.604Z,2.53
2022-10-23T20:06:40.786Z,2.10
2022-10-23T20:09:10.022Z,2.20
2022-10-23T20:11:39.424Z,2.33
2022-10-23T20:14:06.711Z,2.30
2022-10-23T20:16:36.625Z,2.20
2022-10-23T20:19:06.814Z,2.00
2022-10-23T20:21:36.384Z,2.80
2022-10-23T20:24:03.524Z,2.20
2022-10-23T20:26:30.582Z,1.90
2022-10-23T20:28:57.817Z,2.37
2022-10-23T20:31:26.846Z,1.73
2022-10-23T20:33:54.324Z,1.70
2022-10-23T20:36:32.801Z,2.20
2022-10-23T20:39:02.876Z,1.73
2022-10-23T20:41:33.112Z,1.60
2022-10-23T20:44:00.601Z,1.53
2022-10-23T20:46:27.615Z,1.70
2022-10-23T20:48:54.610Z,1.40
2022-10-23T20:51:25.443Z,1.17
2022-10-23T20:53:54.600Z,1.20
2022-10-23T20:56:30.377Z,1.50
2022-10-23T20:58:59.061Z,1.00
2022-10-23T21:01:26.606Z,1.20
2022-10-23T21:03:57.196Z,1.23
2022-10-23T21:06:25.899Z,1.13
2022-10-23T21:08:59.271Z,1.60
2022-10-23T21:11:26.860Z,1.20
2022-10-23T21:13:55.950Z,1.23
2022-10-23T21:16:33.553Z,1.30
2022-10-23T21:19:01.527Z,1.67
2022-10-23T21:21:28.698Z,1.67
2022-10-23T21:23:59.578Z,1.60
2022-10-23T21:26:28.488Z,1.30
2022-10-23T21:29:13.697Z,1.70
2022-10-23T21:31:45.643Z,1.70
2022-10-23T21:34:12.639Z,2.00
2022-10-23T21:37:00.275Z,2.43
2022-10-23T21:39:27.510Z,1.50
2022-10-23T21:41:54.409Z,1.83
2022-10-23T21:44:21.483Z,2.40
2022-10-23T21:46:48.413Z,2.13
2022-10-23T21:49:15.549Z,2.40
2022-10-23T21:51:42.443Z,2.43
2022-10-23T21:54:14.870Z,1.67
2022-10-23T21:56:51.503Z,1.60
2022-10-23T21:59:20.617Z,1.97
2022-10-23T22:01:48.800Z,1.77
2022-10-23T22:04:19.553Z,2.10
2022-10-23T22:06:48.358Z,2.00
2022-10-23T22:09:19.424Z,1.80
2022-10-23T22:11:48.356Z,2.50
2022-10-23T22:14:15.402Z,2.60
2022-10-23T22:16:42.384Z,2.00
2022-10-23T22:19:11.849Z,2.30
2022-10-23T22:21:39.121Z,2.03
2022-10-23T22:24:06.858Z,2.83
2022-10-23T22:26:41.078Z,2.73
2022-10-23T22:29:16.758Z,2.00
2022-10-23T22:31:47.299Z,3.07
2022-10-23T22:34:27.129Z,2.80
2022-10-23T22:37:09.014Z,2.27
2022-10-23T22:39:35.959Z,2.10
2022-10-23T22:42:02.824Z,2.53
2022-10-23T22:44:30.076Z,2.23
2022-10-23T22:46:57.038Z,2.40
2022-10-23T22:49:23.878Z,2.50
2022-10-23T22:51:50.729Z,2.10
2022-10-23T22:54:17.634Z,3.83
2022-10-23T22:56:44.600Z,2.70
2022-10-23T22:59:11.639Z,2.73
2022-10-23T23:01:45.576Z,2.13
2022-10-23T23:04:37.785Z,2.20
2022-10-23T23:07:05.559Z,2.27
2022-10-23T23:09:32.476Z,2.17
2022-10-23T23:11:59.357Z,2.37
2022-10-23T23:14:26.275Z,2.23
2022-10-23T23:16:53.718Z,2.83
2022-10-23T23:19:22.539Z,2.57
2022-10-23T23:21:50.076Z,2.63
2022-10-23T23:24:17.064Z,2.33
2022-10-23T23:26:43.963Z,2.70
2022-10-23T23:29:11.078Z,2.30
2022-10-23T23:31:37.950Z,2.53
2022-10-23T23:34:04.937Z,2.30
2022-10-23T23:36:32.680Z,4.00
2022-10-23T23:38:59.975Z,2.50
2022-10-23T23:41:28.010Z,2.50
2022-10-23T23:43:56.944Z,2.03
2022-10-23T23:46:25.244Z,1.90
2022-10-23T23:48:52.206Z,3.30
2022-10-23T23:51:22.017Z,2.63
2022-10-23T23:53:50.094Z,2.50
2022-10-23T23:56:17.147Z,2.73
2022-10-23T23:58:44.080Z,2.73
